Time;durP1;ratioP1;P1;durP2;ratioP2;P2;SDS_P1;SDS_P2;PMS_P1;PMS_P2;Temp;Humidity;BMP_temperature;BMP_pressure;BME280_temperature;BME280_humidity;BME280_pressure;Samples;Min_cycle;Max_cycle;Signal;HPM_P1;HPM_P2
2023/09/01 00:00:31;;;;;;;5.83;4.27;;;15.70;1.00;;;;;;5021665;28;20524;-83
2023/09/01 00:02:58;;;;;;;10.23;4.10;;;15.70;1.00;;;;;;5039570;28;20215;-84
2023/09/01 00:05:23;;;;;;;13.67;3.70;;;15.70;1.00;;;;;;5037469;28;20217;-84
2023/09/01 00:07:49;;;;;;;11.17;3.87;;;15.80;99.90;;;;;;5019034;28;20453;-83
2023/09/01 00:10:15;;;;;;;11.50;4.70;;;16.00;1.00;;;;;;5031819;28;20190;-83
2023/09/01 00:12:40;;;;;;;8.43;4.00;;;16.10;1.00;;;;;;5030832;28;20237;-84
2023/09/01 00:15:06;;;;;;;8.77;4.20;;;16.10;99.90;;;;;;5033272;28;20586;-84
2023/09/01 00:17:32;;;;;;;7.40;3.70;;;16.20;1.00;;;;;;5029420;28;20186;-84
2023/09/01 00:19:57;;;;;;;9.20;3.77;;;16.30;99.90;;;;;;5038675;28;20430;-84
2023/09/01 00:22:23;;;;;;;5.80;3.43;;;16.40;99.90;;;;;;5028748;28;20206;-84
2023/09/01 00:24:48;;;;;;;9.10;4.77;;;16.40;99.90;;;;;;5012476;28;20185;-83
2023/09/01 00:27:14;;;;;;;8.27;3.53;;;16.30;1.00;;;;;;5011868;28;20247;-83
2023/09/01 00:29:39;;;;;;;9.23;3.20;;;16.30;1.00;;;;;;5009889;28;20236;-84
2023/09/01 00:32:05;;;;;;;7.17;3.77;;;16.30;1.00;;;;;;5034165;28;20211;-83
2023/09/01 00:34:31;;;;;;;6.83;3.60;;;16.40;1.00;;;;;;5014169;28;20186;-83
2023/09/01 00:36:57;;;;;;;9.30;4.30;;;16.40;1.00;;;;;;5016324;28;20425;-84
2023/09/01 00:39:22;;;;;;;7.40;3.63;;;16.40;1.00;;;;;;5035140;28;20197;-83
2023/09/01 00:41:48;;;;;;;7.40;4.40;;;16.40;2.10;;;;;;5034937;28;20446;-84
2023/09/01 00:44:14;;;;;;;11.53;4.23;;;16.40;48.90;;;;;;5018106;28;20743;-83
2023/09/01 00:46:43;;;;;;;8.37;3.90;;;16.40;99.90;;;;;;5008345;28;20183;-83
2023/09/01 00:49:10;;;;;;;6.03;3.83;;;16.40;1.00;;;;;;5034686;28;20560;-84
2023/09/01 00:51:36;;;;;;;10.23;4.03;;;16.30;1.00;;;;;;5033020;28;20511;-84
2023/09/01 00:54:02;;;;;;;7.23;4.40;;;16.20;1.00;;;;;;5034574;28;20440;-83
2023/09/01 00:56:28;;;;;;;8.37;4.50;;;16.20;99.90;;;;;;5029389;28;20429;-84
2023/09/01 00:58:54;;;;;;;9.33;4.23;;;16.10;1.00;;;;;;5021850;28;20457;-84
2023/09/01 01:01:19;;;;;;;9.17;4.80;;;16.10;99.90;;;;;;5013191;28;20191;-83
2023/09/01 01:03:45;;;;;;;9.27;4.70;;;16.10;99.90;;;;;;5026664;28;20209;-83
2023/09/01 01:06:16;;;;;;;8.20;4.50;;;16.10;99.90;;;;;;5026060;28;20194;-84
2023/09/01 01:09:11;;;;;;;7.00;3.97;;;16.00;99.90;;;;;;5032749;28;20496;-84
2023/09/01 01:12:02;;;;;;;5.60;3.90;;;16.10;99.90;;;;;;5014701;28;20464;-84
2023/09/01 01:14:44;;;;;;;9.93;4.80;;;16.10;99.90;;;;;;5014547;28;20517;-83
2023/09/01 01:17:12;;;;;;;5.23;3.70;;;16.10;1.00;;;;;;5037553;28;20432;-84
2023/09/01 01:19:52;;;;;;;8.20;4.40;;;16.10;1.00;;;;;;5031065;28;20432;-84
2023/09/01 01:22:27;;;;;;;8.53;4.50;;;16.10;1.00;;;;;;5011192;28;21123;-83
2023/09/01 01:24:53;;;;;;;6.37;4.60;;;16.20;1.00;;;;;;5038547;28;20443;-84
2023/09/01 01:27:18;;;;;;;9.20;4.30;;;16.10;22.20;;;;;;5027072;28;20444;-83
2023/09/01 01:29:44;;;;;;;10.80;4.33;;;16.10;11.50;;;;;;5023364;28;20192;-83
2023/09/01 01:32:09;;;;;;;9.50;4.37;;;16.20;1.00;;;;;;5019924;28;20245;-84
2023/09/01 01:34:38;;;;;;;11.27;5.07;;;16.30;9.20;;;;;;5028103;28;20254;-83
2023/09/01 01:37:08;;;;;;;8.70;3.87;;;16.40;1.00;;;;;;5019986;28;21120;-84
2023/09/01 01:39:35;;;;;;;7.50;3.93;;;16.40;1.00;;;;;;5019660;28;20433;-83
2023/09/01 01:42:07;;;;;;;6.40;3.47;;;16.40;33.20;;;;;;5024704;28;20459;-84
2023/09/01 01:44:36;;;;;;;6.27;4.23;;;16.40;22.30;;;;;;5007759;28;20442;-85
2023/09/01 01:47:03;;;;;;;10.93;3.70;;;16.40;99.90;;;;;;5030651;28;20442;-84
2023/09/01 01:49:28;;;;;;;4.60;3.83;;;16.40;99.90;;;;;;5012839;28;20472;-84
2023/09/01 01:51:54;;;;;;;9.33;5.30;;;16.40;99.90;;;;;;5018865;28;20449;-84
2023/09/01 01:54:19;;;;;;;4.67;3.67;;;16.40;99.90;;;;;;5035819;28;20226;-83
2023/09/01 01:56:45;;;;;;;5.00;3.57;;;16.30;99.90;;;;;;5027302;28;20805;-84
2023/09/01 01:59:10;;;;;;;9.00;4.13;;;16.30;99.90;;;;;;5006839;28;20183;-84
2023/09/01 02:01:36;;;;;;;5.20;3.47;;;16.30;99.90;;;;;;5032977;28;20278;-84
2023/09/01 02:04:05;;;;;;;7.30;4.70;;;16.30;99.90;;;;;;5025606;28;20312;-83
2023/09/01 02:06:30;;;;;;;6.53;4.93;;;16.30;99.90;;;;;;5007251;28;20238;-83
2023/09/01 02:08:56;;;;;;;6.80;3.90;;;16.20;99.90;;;;;;5026282;28;20496;-84
2023/09/01 02:11:21;;;;;;;7.13;3.20;;;16.30;99.90;;;;;;5029317;28;20190;-83
2023/09/01 02:13:47;;;;;;;5.60;3.57;;;16.40;99.90;;;;;;5031252;28;20283;-83
2023/09/01 02:16:12;;;;;;;6.93;4.07;;;16.40;99.90;;;;;;5031441;28;20249;-84
2023/09/01 02:18:38;;;;;;;8.67;4.43;;;16.50;99.90;;;;;;5024607;28;20183;-84
2023/09/01 02:21:05;;;;;;;4.80;3.87;;;16.50;99.90;;;;;;5031021;28;20195;-84
2023/09/01 02:23:30;;;;;;;6.10;3.60;;;16.50;99.90;;;;;;5010885;28;20239;-84
2023/09/01 02:25:56;;;;;;;7.87;4.33;;;16.60;99.90;;;;;;5026025;28;20434;-83
2023/09/01 02:28:21;;;;;;;8.30;4.20;;;16.50;99.90;;;;;;5030867;28;20218;-83
2023/09/01 02:30:47;;;;;;;7.17;4.00;;;16.60;99.90;;;;;;5030323;28;20218;-83
2023/09/01 02:33:12;;;;;;;9.23;4.20;;;16.60;99.90;;;;;;5026074;28;20219;-84
2023/09/01 02:35:44;;;;;;;9.07;4.63;;;16.60;99.90;;;;;;5025496;28;20176;-84
2023/09/01 02:38:10;;;;;;;6.07;3.63;;;16.60;99.90;;;;;;5031352;28;20179;-83
2023/09/01 02:40:36;;;;;;;9.37;4.47;;;16.60;99.90;;;;;;5015240;28;20497;-82
2023/09/01 02:43:03;;;;;;;6.63;4.97;;;16.50;99.90;;;;;;5031403;28;20497;-84
2023/09/01 02:45:28;;;;;;;8.50;4.50;;;16.50;99.90;;;;;;5013607;28;20591;-83
2023/09/01 02:47:54;;;;;;;8.43;4.70;;;16.40;99.90;;;;;;5033183;28;20488;-84
2023/09/01 02:50:20;;;;;;;10.20;4.57;;;16.40;99.90;;;;;;5033258;28;20182;-84
2023/09/01 02:52:45;;;;;;;8.03;4.43;;;16.40;99.90;;;;;;5024614;28;20845;-84
2023/09/01 02:55:12;;;;;;;9.33;4.93;;;16.30;1.00;;;;;;5026049;28;20187;-83
2023/09/01 02:57:37;;;;;;;11.17;4.30;;;16.30;1.00;;;;;;5036395;28;20275;-83
2023/09/01 03:00:15;;;;;;;9.90;5.03;;;16.30;1.00;;;;;;5015883;28;20493;-84
2023/09/01 03:02:44;;;;;;;11.47;5.00;;;16.30;1.00;;;;;;5020427;28;20794;-83
2023/09/01 03:05:10;;;;;;;6.10;4.10;;;16.30;1.00;;;;;;5038480;28;20441;-83
2023/09/01 03:07:36;;;;;;;7.55;4.18;;;16.20;1.00;;;;;;5032659;28;20469;-85
2023/09/01 03:10:02;;;;;;;5.03;3.83;;;16.30;1.00;;;;;;5028743;28;20266;-84
2023/09/01 03:12:27;;;;;;;9.07;3.53;;;16.30;1.00;;;;;;5030583;28;20488;-84
2023/09/01 03:14:53;;;;;;;6.63;3.70;;;16.30;1.00;;;;;;5016848;28;20192;-84
2023/09/01 03:17:19;;;;;;;5.70;3.60;;;16.40;1.00;;;;;;5037290;28;20182;-84
2023/09/01 03:19:44;;;;;;;8.87;3.97;;;16.40;1.00;;;;;;5038369;28;20942;-84
2023/09/01 03:22:10;;;;;;;8.13;3.40;;;16.40;1.00;;;;;;5033466;28;20238;-84
2023/09/01 03:24:35;;;;;;;5.00;3.80;;;16.50;1.00;;;;;;5013778;28;20182;-83
2023/09/01 03:27:01;;;;;;;8.73;4.00;;;16.50;99.90;;;;;;5006484;28;20168;-84
2023/09/01 03:29:27;;;;;;;5.53;3.40;;;16.50;99.90;;;;;;5028095;28;20581;-83
2023/09/01 03:31:52;;;;;;;9.37;4.20;;;16.50;99.90;;;;;;5018016;28;20227;-84
2023/09/01 03:34:18;;;;;;;6.23;3.73;;;16.50;99.90;;;;;;5003755;28;20191;-84
2023/09/01 03:36:43;;;;;;;5.43;3.77;;;16.50;99.90;;;;;;4998146;28;20183;-84
2023/09/01 03:39:09;;;;;;;6.00;3.53;;;16.50;99.90;;;;;;4995566;28;20196;-83
2023/09/01 03:41:36;;;;;;;5.13;3.97;;;16.50;99.90;;;;;;5021671;28;20188;-84
2023/09/01 03:44:02;;;;;;;3.87;3.17;;;16.50;1.00;;;;;;5021632;28;21225;-83
2023/09/01 03:46:27;;;;;;;5.10;3.53;;;16.50;1.00;;;;;;5024229;28;20434;-83
2023/09/01 03:48:53;;;;;;;5.97;3.30;;;16.40;1.00;;;;;;5030410;28;20698;-83
2023/09/01 03:51:18;;;;;;;5.97;3.77;;;16.30;1.00;;;;;;5028250;28;20237;-84
2023/09/01 03:53:44;;;;;;;8.40;5.20;;;16.30;1.00;;;;;;5034431;28;20211;-84
2023/09/01 03:56:15;;;;;;;5.80;4.00;;;16.20;1.00;;;;;;5015947;28;20176;-81
2023/09/01 03:58:41;;;;;;;5.83;4.10;;;16.20;1.00;;;;;;5030308;28;20194;-83
2023/09/01 04:01:11;;;;;;;5.57;4.23;;;16.20;1.00;;;;;;5028472;28;20500;-83
2023/09/01 04:03:47;;;;;;;7.37;5.13;;;16.10;1.00;;;;;;5016361;28;20452;-83
2023/09/01 04:06:13;;;;;;;6.23;4.50;;;16.10;1.00;;;;;;5012636;28;20510;-83
2023/09/01 04:08:38;;;;;;;7.40;4.03;;;16.20;1.00;;;;;;5024170;28;20467;-83
2023/09/01 04:11:05;;;;;;;7.33;4.30;;;16.20;1.00;;;;;;5034129;28;20435;-83
2023/09/01 04:13:31;;;;;;;5.90;4.00;;;16.20;1.00;;;;;;5013764;28;20195;-83
2023/09/01 04:15:57;;;;;;;6.60;4.00;;;16.30;1.00;;;;;;5025818;28;20468;-84
2023/09/01 04:18:22;;;;;;;5.40;3.90;;;16.20;1.00;;;;;;5027337;28;20475;-83
2023/09/01 04:20:53;;;;;;;7.83;4.10;;;16.20;1.00;;;;;;5037807;28;20187;-83
2023/09/01 04:23:19;;;;;;;10.10;3.60;;;16.20;1.00;;;;;;5035471;28;20215;-84
2023/09/01 04:25:48;;;;;;;5.33;3.50;;;16.20;1.00;;;;;;5033369;28;20446;-84
2023/09/01 04:28:14;;;;;;;5.17;4.03;;;16.20;1.00;;;;;;5014704;28;20325;-83
2023/09/01 04:30:42;;;;;;;8.10;4.23;;;16.10;1.00;;;;;;5039601;28;20508;-84
2023/09/01 04:33:07;;;;;;;5.73;4.50;;;16.20;1.00;;;;;;5016035;28;20520;-84
2023/09/01 04:35:33;;;;;;;7.17;5.03;;;16.20;1.00;;;;;;5033528;28;20470;-83
2023/09/01 04:37:59;;;;;;;5.53;4.40;;;16.20;1.00;;;;;;5040742;28;20274;-83
2023/09/01 04:40:26;;;;;;;7.23;4.20;;;16.10;1.00;;;;;;5032080;28;20194;-84
2023/09/01 04:42:51;;;;;;;4.93;3.57;;;16.10;1.00;;;;;;5020719;28;20491;-84
2023/09/01 04:45:17;;;;;;;12.23;4.07;;;16.20;1.00;;;;;;5005825;28;20449;-84
2023/09/01 04:47:43;;;;;;;6.07;3.60;;;16.10;1.00;;;;;;5018378;28;20218;-82
2023/09/01 04:50:09;;;;;;;5.00;4.10;;;16.20;1.00;;;;;;5036975;28;20461;-82
2023/09/01 04:52:35;;;;;;;6.47;4.87;;;16.10;1.00;;;;;;5031993;28;20203;-84
2023/09/01 04:55:01;;;;;;;8.13;4.57;;;16.10;1.00;;;;;;5039987;28;21043;-84
2023/09/01 04:57:27;;;;;;;5.77;4.50;;;16.00;1.00;;;;;;5036015;28;20206;-83
2023/09/01 04:59:53;;;;;;;5.33;4.00;;;16.00;1.00;;;;;;5029038;28;20449;-84
2023/09/01 05:02:18;;;;;;;8.13;4.87;;;16.00;1.00;;;;;;5031298;28;20478;-83
2023/09/01 05:04:44;;;;;;;6.13;3.90;;;16.00;1.00;;;;;;5035766;28;20182;-83
2023/09/01 05:07:10;;;;;;;6.60;4.57;;;16.00;1.00;;;;;;5017040;28;20182;-83
2023/09/01 05:09:35;;;;;;;5.57;4.57;;;16.00;1.00;;;;;;5023998;28;20575;-84
2023/09/01 05:12:01;;;;;;;6.37;4.67;;;16.00;1.00;;;;;;5029340;28;20281;-83
2023/09/01 05:14:26;;;;;;;5.13;4.47;;;16.00;1.00;;;;;;5011714;28;20192;-84
2023/09/01 05:16:52;;;;;;;8.47;3.97;;;16.00;1.00;;;;;;5032522;28;20602;-84
2023/09/01 05:19:17;;;;;;;9.33;4.60;;;16.10;1.00;;;;;;5023193;28;20219;-84
2023/09/01 05:21:43;;;;;;;8.43;4.20;;;16.10;1.00;;;;;;5026714;28;20261;-83
2023/09/01 05:24:11;;;;;;;3.97;3.57;;;16.10;1.00;;;;;;5026312;28;20194;-84
2023/09/01 05:26:36;;;;;;;6.67;4.27;;;16.10;1.00;;;;;;5022997;28;20199;-83
2023/09/01 05:29:02;;;;;;;5.47;4.27;;;16.10;1.00;;;;;;5014332;28;20558;-83
2023/09/01 05:31:27;;;;;;;6.57;3.97;;;16.10;1.00;;;;;;5014471;28;20184;-84
2023/09/01 05:33:53;;;;;;;7.30;4.27;;;16.10;1.00;;;;;;5014175;28;20210;-84
2023/09/01 05:36:18;;;;;;;5.80;4.30;;;16.10;1.00;;;;;;5018424;28;20266;-83
2023/09/01 05:38:44;;;;;;;7.00;4.93;;;16.20;1.00;;;;;;5014824;28;20187;-84
2023/09/01 05:41:12;;;;;;;7.80;4.47;;;16.20;1.00;;;;;;5007184;28;20561;-84
2023/09/01 05:43:38;;;;;;;6.23;4.90;;;16.10;1.00;;;;;;5032410;28;20207;-84
2023/09/01 05:46:04;;;;;;;6.90;4.47;;;16.20;1.00;;;;;;5009484;28;20475;-84
2023/09/01 05:48:29;;;;;;;5.40;4.47;;;16.20;1.00;;;;;;5023709;28;20680;-82
2023/09/01 05:50:55;;;;;;;9.27;4.30;;;16.40;1.00;;;;;;5030545;28;21430;-84
2023/09/01 05:53:21;;;;;;;5.17;4.07;;;16.50;1.00;;;;;;5030233;28;20219;-84
2023/09/01 05:55:47;;;;;;;5.23;3.60;;;16.50;1.00;;;;;;5036862;28;20196;-83
2023/09/01 05:58:13;;;;;;;9.30;5.00;;;16.60;1.00;;;;;;5011634;28;21157;-84
2023/09/01 06:00:38;;;;;;;5.87;4.53;;;16.60;1.00;;;;;;5037004;28;20193;-84
2023/09/01 06:03:04;;;;;;;6.53;3.80;;;16.60;1.00;;;;;;5028984;28;20599;-85
2023/09/01 06:05:30;;;;;;;7.73;4.30;;;16.60;1.00;;;;;;5032075;28;20572;-84
2023/09/01 06:07:56;;;;;;;4.23;3.80;;;16.70;1.00;;;;;;5004339;28;20209;-85
2023/09/01 06:10:22;;;;;;;4.20;3.77;;;16.70;1.00;;;;;;5007002;28;20504;-85
2023/09/01 06:12:47;;;;;;;5.23;4.00;;;16.70;1.00;;;;;;5028593;28;20235;-82
2023/09/01 06:15:13;;;;;;;5.57;3.47;;;16.80;1.00;;;;;;5007969;28;20638;-84
2023/09/01 06:17:38;;;;;;;8.60;3.90;;;16.80;1.00;;;;;;5026146;28;20216;-84
2023/09/01 06:20:06;;;;;;;4.80;3.40;;;16.90;1.00;;;;;;5020534;28;20187;-84
2023/09/01 06:22:32;;;;;;;7.67;3.83;;;16.90;1.00;;;;;;5026971;28;20239;-84
2023/09/01 06:24:57;;;;;;;5.00;4.03;;;17.00;1.00;;;;;;5013001;28;20476;-84
2023/09/01 06:27:23;;;;;;;6.10;3.70;;;17.00;1.00;;;;;;5026435;28;20685;-84
2023/09/01 06:29:48;;;;;;;7.00;3.60;;;17.00;1.00;;;;;;5028444;28;20652;-83
2023/09/01 06:32:14;;;;;;;6.47;3.03;;;17.00;1.00;;;;;;5026429;28;20239;-84
2023/09/01 06:34:40;;;;;;;5.23;3.70;;;16.90;1.00;;;;;;5026952;28;20223;-84
2023/09/01 06:37:05;;;;;;;4.60;3.30;;;16.90;1.00;;;;;;5025666;28;20277;-83
2023/09/01 06:39:31;;;;;;;5.40;3.43;;;17.00;1.00;;;;;;5011833;28;20191;-84
2023/09/01 06:41:57;;;;;;;5.40;3.67;;;17.00;1.00;;;;;;5014972;28;20238;-83
2023/09/01 06:44:22;;;;;;;4.90;3.40;;;17.10;1.00;;;;;;5020684;28;20470;-81
2023/09/01 06:46:48;;;;;;;5.60;2.87;;;17.20;1.00;;;;;;5012482;28;20281;-84
2023/09/01 06:49:15;;;;;;;7.30;3.47;;;17.20;1.00;;;;;;5021912;28;20208;-85
2023/09/01 06:51:41;;;;;;;7.30;3.93;;;17.30;1.00;;;;;;5000598;28;20428;-83
2023/09/01 06:54:06;;;;;;;4.33;3.93;;;17.30;1.00;;;;;;5023583;28;20886;-84
2023/09/01 06:56:32;;;;;;;4.57;3.60;;;17.20;1.00;;;;;;5019772;28;20522;-84
2023/09/01 06:58:57;;;;;;;5.70;4.50;;;17.30;1.00;;;;;;5025315;28;20195;-84
2023/09/01 07:01:23;;;;;;;4.47;3.83;;;17.20;1.00;;;;;;5023886;28;20269;-85
2023/09/01 07:03:48;;;;;;;6.70;4.40;;;17.20;1.00;;;;;;5002306;28;20251;-85
2023/09/01 07:06:14;;;;;;;5.50;3.80;;;17.10;1.00;;;;;;4999369;28;20190;-85
2023/09/01 07:08:39;;;;;;;5.60;4.17;;;17.20;1.00;;;;;;5010826;28;20242;-84
2023/09/01 07:11:09;;;;;;;5.13;3.90;;;17.20;1.00;;;;;;5008888;28;20180;-82
2023/09/01 07:13:35;;;;;;;7.63;4.20;;;17.20;1.00;;;;;;5023405;28;20701;-85
2023/09/01 07:16:00;;;;;;;6.90;4.20;;;17.40;1.00;;;;;;5023365;28;20499;-85
2023/09/01 07:18:26;;;;;;;7.27;4.53;;;17.50;1.00;;;;;;5017078;28;20214;-85
2023/09/01 07:20:56;;;;;;;5.03;3.10;;;17.40;1.00;;;;;;5020436;28;20197;-85
2023/09/01 07:23:21;;;;;;;4.47;3.30;;;17.50;1.00;;;;;;5014855;28;20292;-85
2023/09/01 07:25:47;;;;;;;5.40;3.57;;;17.60;1.00;;;;;;5010611;28;20475;-84
2023/09/01 07:28:13;;;;;;;6.60;3.40;;;17.50;1.00;;;;;;5002897;28;20200;-85
2023/09/01 07:30:39;;;;;;;3.80;2.93;;;17.50;1.00;;;;;;5034075;28;20267;-84
2023/09/01 07:33:05;;;;;;;6.50;3.17;;;17.40;1.00;;;;;;5026428;28;20456;-84
2023/09/01 07:35:31;;;;;;;4.30;2.70;;;17.40;1.00;;;;;;5014187;28;20428;-84
2023/09/01 07:37:57;;;;;;;4.17;3.10;;;17.40;1.00;;;;;;5020070;28;20193;-85
2023/09/01 07:40:23;;;;;;;7.00;3.60;;;17.40;1.00;;;;;;5023482;28;20673;-84
2023/09/01 07:42:49;;;;;;;3.90;3.40;;;17.30;1.00;;;;;;5030181;28;20211;-84
2023/09/01 07:45:15;;;;;;;15.10;3.97;;;17.40;1.00;;;;;;5027690;28;20451;-85
2023/09/01 07:47:40;;;;;;;5.80;3.90;;;17.30;1.00;;;;;;5013817;28;20222;-84
2023/09/01 07:50:06;;;;;;;6.40;4.20;;;17.30;1.00;;;;;;5028003;28;20195;-85
2023/09/01 07:52:32;;;;;;;8.00;3.80;;;17.20;1.00;;;;;;5022235;28;20224;-85
2023/09/01 07:54:58;;;;;;;9.27;4.70;;;17.30;1.00;;;;;;5027666;28;20508;-85
2023/09/01 07:57:23;;;;;;;6.23;4.17;;;17.20;1.00;;;;;;5010331;28;20190;-84
2023/09/01 07:59:49;;;;;;;7.57;4.93;;;17.20;1.00;;;;;;5031079;28;20220;-84
2023/09/01 08:02:14;;;;;;;5.77;4.70;;;17.10;1.00;;;;;;5028851;28;20208;-84
2023/09/01 08:04:40;;;;;;;7.87;5.80;;;17.10;1.00;;;;;;5021740;28;20189;-85
2023/09/01 08:07:05;;;;;;;8.17;4.80;;;16.90;1.00;;;;;;5026877;28;20197;-85
2023/09/01 08:09:31;;;;;;;7.93;5.80;;;16.90;1.00;;;;;;5007654;28;20619;-85
2023/09/01 08:11:56;;;;;;;6.77;5.50;;;16.90;1.00;;;;;;5021943;28;20278;-84
2023/09/01 08:14:22;;;;;;;8.40;6.50;;;17.00;1.00;;;;;;5022840;28;20216;-84
2023/09/01 08:16:48;;;;;;;8.03;6.00;;;16.90;1.00;;;;;;5032108;28;20231;-85
2023/09/01 08:19:14;;;;;;;8.63;5.63;;;17.00;1.00;;;;;;5004989;28;20190;-85
2023/09/01 08:21:40;;;;;;;9.07;6.20;;;17.00;1.00;;;;;;5010987;28;20189;-83
2023/09/01 08:24:06;;;;;;;8.83;6.10;;;17.10;1.00;;;;;;5031688;28;20447;-85
2023/09/01 08:26:33;;;;;;;11.30;5.63;;;17.30;1.00;;;;;;5013210;28;20190;-83
2023/09/01 08:28:59;;;;;;;9.93;5.47;;;17.30;1.00;;;;;;5030249;28;20467;-84
2023/09/01 08:31:24;;;;;;;11.27;5.97;;;17.30;1.00;;;;;;5022272;28;20438;-84
2023/09/01 08:33:51;;;;;;;14.80;5.80;;;17.40;1.00;;;;;;5021033;28;20219;-84
2023/09/01 08:36:17;;;;;;;9.20;5.20;;;17.40;1.00;;;;;;4998779;28;21009;-84
2023/09/01 08:38:43;;;;;;;7.80;5.00;;;17.40;1.00;;;;;;5020316;28;20476;-84
2023/09/01 08:41:08;;;;;;;8.37;5.20;;;17.40;1.00;;;;;;5022912;28;20440;-84
2023/09/01 08:43:38;;;;;;;8.30;5.47;;;17.50;1.00;;;;;;5024506;28;20204;-84
2023/09/01 08:46:04;;;;;;;10.00;5.70;;;17.30;1.00;;;;;;5024363;28;20188;-84
2023/09/01 08:48:31;;;;;;;9.07;5.70;;;17.40;1.00;;;;;;5026093;28;20791;-85
2023/09/01 08:50:57;;;;;;;45.50;7.23;;;17.30;1.00;;;;;;5009440;28;20969;-84
2023/09/01 08:53:24;;;;;;;44.13;7.40;;;17.30;10.00;;;;;;5019228;28;20542;-83
2023/09/01 08:55:50;;;;;;;41.83;7.40;;;17.20;29.40;;;;;;5030179;28;20177;-83
2023/09/01 08:58:17;;;;;;;41.57;8.50;;;17.00;48.30;;;;;;5028651;28;20494;-83
2023/09/01 09:00:43;;;;;;;38.73;6.50;;;16.90;69.00;;;;;;5012044;28;20455;-84
2023/09/01 09:03:12;;;;;;;9.37;5.30;;;16.80;90.10;;;;;;5028799;28;20585;-85
2023/09/01 09:05:38;;;;;;;7.90;4.80;;;16.90;95.10;;;;;;5013415;28;20485;-84
2023/09/01 09:08:06;;;;;;;12.37;5.40;;;16.90;97.30;;;;;;5026580;28;20474;-85
2023/09/01 09:10:39;;;;;;;11.00;6.07;;;17.00;99.90;;;;;;5010223;28;20449;-84
2023/09/01 09:13:21;;;;;;;8.10;4.80;;;16.90;99.90;;;;;;5036984;28;20483;-85
2023/09/01 09:16:05;;;;;;;19.13;7.23;;;17.00;99.90;;;;;;5032344;28;20540;-84
2023/09/01 09:18:30;;;;;;;12.20;7.07;;;17.00;99.90;;;;;;5030126;28;20446;-84
2023/09/01 09:20:56;;;;;;;15.30;6.80;;;17.00;99.90;;;;;;5020657;28;20442;-84
2023/09/01 09:23:21;;;;;;;15.43;8.20;;;17.00;99.90;;;;;;5022153;28;20235;-84
2023/09/01 09:25:49;;;;;;;12.87;7.43;;;17.10;99.90;;;;;;5037680;28;20239;-84
2023/09/01 09:28:33;;;;;;;10.90;6.83;;;17.20;99.90;;;;;;5032515;28;20211;-84
2023/09/01 09:31:00;;;;;;;16.35;6.88;;;17.20;99.90;;;;;;5020990;28;20453;-84
2023/09/01 09:33:30;;;;;;;11.53;5.87;;;17.30;99.90;;;;;;5029388;28;20210;-84
2023/09/01 09:35:59;;;;;;;12.10;5.57;;;17.40;99.90;;;;;;5007915;28;20436;-84
2023/09/01 09:38:39;;;;;;;10.33;5.70;;;17.50;99.90;;;;;;5024836;28;20444;-84
2023/09/01 09:41:04;;;;;;;13.97;6.20;;;17.50;99.90;;;;;;5026445;28;20985;-83
2023/09/01 09:43:47;;;;;;;9.30;5.73;;;17.60;99.90;;;;;;5020233;28;20495;-84
2023/09/01 09:46:14;;;;;;;11.40;6.00;;;17.60;99.90;;;;;;5018380;28;20185;-84
2023/09/01 09:48:41;;;;;;;29.93;7.37;;;17.70;99.90;;;;;;5018913;28;20970;-84
2023/09/01 09:51:08;;;;;;;14.70;6.20;;;17.70;99.90;;;;;;5027439;28;20435;-84
2023/09/01 09:53:36;;;;;;;17.40;6.73;;;17.70;99.90;;;;;;5023444;28;20535;-83
2023/09/01 09:56:18;;;;;;;11.50;6.37;;;17.70;99.30;;;;;;5010594;28;20426;-83
2023/09/01 09:58:46;;;;;;;13.70;7.20;;;17.90;98.50;;;;;;5028086;28;20451;-85
2023/09/01 10:01:19;;;;;;;9.27;5.50;;;18.20;99.90;;;;;;5000665;28;20449;-85
2023/09/01 10:03:47;;;;;;;9.70;5.53;;;18.50;95.10;;;;;;5016302;28;20526;-83
2023/09/01 10:06:16;;;;;;;12.43;6.30;;;18.90;92.90;;;;;;5024140;28;20482;-85
2023/09/01 10:08:42;;;;;;;14.90;7.10;;;19.00;45.30;;;;;;5007245;28;21002;-85
2023/09/01 10:11:09;;;;;;;7.77;6.07;;;19.20;40.90;;;;;;5021753;28;20447;-85
2023/09/01 10:13:39;;;;;;;7.07;4.50;;;19.40;29.80;;;;;;5004255;28;20546;-84
2023/09/01 10:16:05;;;;;;;7.80;4.40;;;19.80;24.90;;;;;;4998784;28;20447;-86
2023/09/01 10:18:33;;;;;;;7.40;4.13;;;19.80;1.00;;;;;;5012936;28;20973;-85
2023/09/01 10:21:16;;;;;;;6.63;3.70;;;20.20;3.90;;;;;;5016972;28;20676;-85
2023/09/01 10:23:42;;;;;;;4.20;3.53;;;20.10;1.00;;;;;;5020608;28;20962;-85
2023/09/01 10:26:14;;;;;;;6.90;3.97;;;20.00;1.00;;;;;;5018097;28;20189;-85
2023/09/01 10:28:54;;;;;;;6.17;4.00;;;20.10;1.00;;;;;;5002837;28;20472;-85
2023/09/01 10:31:23;;;;;;;5.05;3.78;;;20.10;1.00;;;;;;5026134;28;20455;-86
2023/09/01 10:34:05;;;;;;;8.87;5.23;;;20.00;1.00;;;;;;5030537;28;20212;-85
2023/09/01 10:36:31;;;;;;;6.37;4.43;;;20.00;1.00;;;;;;5022785;28;20446;-85
2023/09/01 10:39:19;;;;;;;11.13;6.30;;;19.90;1.00;;;;;;5018703;28;20432;-85
2023/09/01 10:41:47;;;;;;;12.43;7.40;;;19.90;1.00;;;;;;5010272;28;20934;-85
2023/09/01 10:44:13;;;;;;;20.33;8.20;;;19.90;3.90;;;;;;5006583;28;20477;-85
2023/09/01 10:46:43;;;;;;;19.23;7.90;;;19.80;7.40;;;;;;5027661;28;20437;-85
2023/09/01 10:49:10;;;;;;;15.63;7.77;;;19.80;12.20;;;;;;5010829;28;20212;-84
2023/09/01 10:51:43;;;;;;;13.07;8.60;;;19.80;16.60;;;;;;5027727;28;20450;-85
2023/09/01 10:54:14;;;;;;;15.07;8.07;;;19.70;19.10;;;;;;5019701;28;20464;-84
2023/09/01 10:57:02;;;;;;;17.50;8.60;;;19.60;25.80;;;;;;5028624;28;20816;-84
2023/09/01 10:59:34;;;;;;;14.65;7.63;;;19.60;27.30;;;;;;5016266;28;20487;-83
2023/09/01 11:02:23;;;;;;;13.30;8.00;;;19.60;26.80;;;;;;5022831;28;20661;-84
2023/09/01 11:04:49;;;;;;;15.83;8.20;;;19.60;28.80;;;;;;5031638;28;20441;-83
2023/09/01 11:07:15;;;;;;;14.43;7.60;;;19.60;29.10;;;;;;5028035;28;20460;-84
2023/09/01 11:09:42;;;;;;;15.90;7.93;;;19.60;30.60;;;;;;5014855;28;20598;-84
2023/09/01 11:12:10;;;;;;;14.67;7.43;;;19.60;31.80;;;;;;5027676;28;20480;-84
2023/09/01 11:14:37;;;;;;;11.35;6.72;;;19.60;26.80;;;;;;5017471;28;20440;-84
2023/09/01 11:17:03;;;;;;;9.30;5.80;;;19.70;27.60;;;;;;5006052;28;20190;-84
2023/09/01 11:19:32;;;;;;;11.73;6.93;;;19.80;22.20;;;;;;5028938;28;20873;-84
2023/09/01 11:21:58;;;;;;;10.00;6.40;;;19.80;10.40;;;;;;5022989;28;20528;-84
2023/09/01 11:24:23;;;;;;;7.80;5.47;;;19.90;6.20;;;;;;5008879;28;20437;-84
2023/09/01 11:26:50;;;;;;;11.33;6.27;;;19.90;8.50;;;;;;5004634;28;21029;-84
2023/09/01 11:29:16;;;;;;;10.40;6.10;;;20.00;8.50;;;;;;5030567;28;20215;-83
2023/09/01 11:31:42;;;;;;;8.63;6.50;;;20.00;4.50;;;;;;5024766;28;20517;-83
2023/09/01 11:34:09;;;;;;;9.45;5.82;;;20.20;11.00;;;;;;5024859;28;20545;-83
2023/09/01 11:36:47;;;;;;;9.87;5.53;;;20.40;4.90;;;;;;5031263;28;20178;-83
2023/09/01 11:39:13;;;;;;;12.10;5.85;;;20.50;1.00;;;;;;5029537;28;20957;-84
2023/09/01 11:41:41;;;;;;;8.97;5.80;;;20.60;1.00;;;;;;5025022;28;20185;-84
2023/09/01 11:44:07;;;;;;;11.30;6.03;;;20.80;1.00;;;;;;5010675;28;20424;-84
2023/09/01 11:46:35;;;;;;;11.50;5.60;;;20.90;1.00;;;;;;5032344;28;20431;-84
2023/09/01 11:49:01;;;;;;;11.97;5.97;;;20.80;1.00;;;;;;5018302;28;20994;-84
2023/09/01 11:51:36;;;;;;;10.10;6.33;;;20.70;1.00;;;;;;5019573;28;20508;-84
2023/09/01 11:54:02;;;;;;;9.88;6.78;;;20.60;1.00;;;;;;5035179;28;20463;-85
2023/09/01 11:56:28;;;;;;;14.70;5.90;;;20.50;1.00;;;;;;5011946;28;20187;-84
2023/09/01 11:58:55;;;;;;;8.43;5.50;;;20.50;1.00;;;;;;5027323;28;20442;-84
2023/09/01 12:01:23;;;;;;;8.80;5.23;;;20.40;1.00;;;;;;5011675;28;20206;-83
2023/09/01 12:03:54;;;;;;;11.10;7.00;;;20.40;1.00;;;;;;5028653;28;20526;-85
2023/09/01 12:06:22;;;;;;;11.80;6.80;;;20.50;1.00;;;;;;5009094;28;20520;-84
2023/09/01 12:09:11;;;;;;;9.80;6.70;;;20.60;1.00;;;;;;5005507;28;21162;-84
2023/09/01 12:11:57;;;;;;;11.70;7.93;;;20.50;1.00;;;;;;5024573;28;20438;-85
2023/09/01 12:14:30;;;;;;;11.80;8.90;;;20.30;1.00;;;;;;5023227;28;20440;-85
2023/09/01 12:17:00;;;;;;;13.33;8.60;;;20.20;1.00;;;;;;5012634;28;20440;-85
2023/09/01 12:19:26;;;;;;;17.87;7.70;;;20.10;1.00;;;;;;5013555;28;20625;-84
2023/09/01 12:21:57;;;;;;;13.90;7.50;;;20.10;1.00;;;;;;5018941;28;20526;-84
2023/09/01 12:24:22;;;;;;;11.77;5.60;;;20.20;1.00;;;;;;5031907;28;20535;-83
2023/09/01 12:26:48;;;;;;;9.60;6.10;;;20.30;1.00;;;;;;5022699;28;20233;-82
2023/09/01 12:29:14;;;;;;;9.80;6.03;;;20.20;1.00;;;;;;5029012;28;20739;-82
2023/09/01 12:31:39;;;;;;;9.30;6.60;;;20.20;1.00;;;;;;5030929;28;20246;-83
2023/09/01 12:34:05;;;;;;;11.63;6.50;;;20.10;1.00;;;;;;5023664;28;20210;-83
2023/09/01 12:36:31;;;;;;;11.83;6.67;;;20.10;1.00;;;;;;5020540;28;20192;-81
2023/09/01 12:38:56;;;;;;;11.03;5.60;;;20.10;1.90;;;;;;5022958;28;20316;-82
2023/09/01 12:41:22;;;;;;;6.83;4.63;;;20.10;11.60;;;;;;5016636;28;20198;-83
2023/09/01 12:43:48;;;;;;;6.30;4.20;;;20.30;1.00;;;;;;5031176;28;20260;-83
2023/09/01 12:46:13;;;;;;;4.87;3.00;;;20.60;1.00;;;;;;5013016;28;20274;-82
2023/09/01 12:48:39;;;;;;;4.10;3.13;;;20.90;1.00;;;;;;5020783;28;20576;-82
2023/09/01 12:51:05;;;;;;;3.77;3.10;;;21.20;1.00;;;;;;5007444;28;20554;-83